找回密码

收藏本版 (35)

DiY蓝光原盘 今日: 16 |主题: 1234|排名: 5 

作者 回复/查看 最后发表
[喜剧] 开心鬼2/开心鬼放暑假 [港版原盘国粤双语+简繁中字].Happy.Ghost.II.1985.BluRay.1080p.Blu-ray.AVC.LPCM.2.0-TAG 22.81GB 蓝光 2024-5-15 1218 Eric2006 2024-5-16 00:42
[喜剧] 开心鬼 [港版原盘国粤双语+简繁中字].The.Happy.Ghost.1984.BluRay.1080p.AVC.TrueHD5.1-TAG 22.74GB 蓝光 2024-5-15 2276 speed5155 2024-6-4 04:10
[动作] 战神滩 [英版2K修复原盘DIY简繁中字/国英双语/导评].Beach.of.the.War.Gods.1973.GBR.BluRay.1080p.AVC.LPCM.2.0-TAG 43.62GB 蓝光 2024-5-15 1257 Eric2006 2024-5-16 00:37
[喜剧] 魔翡翠 [英版2K修复原盘DIY国粤配简繁中字/粤语DIY国粤语].Magic.Crystal.1986.GBR.BluRay.1080p.AVC.LPCM.2.0-TAG 39.51GB 蓝光 2024-5-15 0311 蓝光 2024-5-15 01:15
[剧情] 给爸爸的信 [英版4K修复原盘DIY国粤配简繁中字/粤语DIY国粤泰语/菜单汉化/花絮中字].My.Father.Is.A.Hero.Letter.1995.GBR.BluRay.1080p.AVC.LPCM.2.0-TAG 43.80GB 蓝光 2024-5-15 0331 蓝光 2024-5-15 01:06
[剧情] 空山灵雨 [美版原盘DIY简繁中字/国语音轨].Raining in the Mountain.1979.USA.BluRay.1080p.AVC.LPCM.2.0-TAG 41.34GB 蓝光 2024-5-15 2270 gongzijiang 2024-5-21 10:10
[动作] 杀手之王 [英版原盘DIY国粤配简繁中字/粤语DIY国语/菜单汉化/花絮中字].The.Contract.Killer.1998.GBR.2in1.BluRay.1080p.AVC.DTS-HD.MA.5.1-TAG 46.23GB 蓝光 2024-5-15 1314 speed5155 2024-6-15 14:08
[剧情] 流星蝴蝶剑 [美版原盘DIY简繁中字/国英双语/导评].Killer.Clans.1976.USA.BluRay.1080p.AVC.DTS-HD.MA.2.0-TAG 39.25GB 蓝光 2024-5-15 1269 Eric2006 2024-5-16 00:31
[喜剧] 鹿鼎记2:神龙教 [英版4K修复原盘DIY国粤配简繁中字/粤语DIY国粤台泰语/菜单汉化/花絮中字].Royal.Tramp.II.1992.GBR.BluRay.1080p.AVC.LPCM.2.0-TAG 38.45GB 蓝光 2024-5-15 0449 蓝光 2024-5-15 00:19
[喜剧] 鹿鼎记 [英版4K修复原盘DIY国粤配简繁中字/粤语DIY国粤台泰语/菜单汉化/花絮中字].Royal.Tramp.1992.GBR.BluRay.1080p.AVC.LPCM.2.0-TAG 40.49GB 蓝光 2024-5-15 1458 平行线 2024-5-19 10:09
[其他] 我为卿狂 [港版原盘DIY国粤配简繁中字/国粤双语].Hidden.Desire.1991.HKG.BluRay.1080p.AVC.DD.2.0-TAG 23.17GB 蓝光 2024-5-14 3840 kcfbb 2024-5-29 06:09
[剧情] 酒仙十八跌+师父出马 [英版原盘DIY简繁中字/国粤双语].The.World.of.Drunken.Master+The.Young.Master.1979.GBR.2in1.BluRay.1080p.AVC.LPCM.1.0-TAG 47.64GB 蓝光 2024-5-14 2256 titie233 2024-5-17 11:29
[喜剧] A计划续集 [英版2K修复原盘DIY国粤配简繁中字/粤语DIY国粤法日泰语/导评/菜单汉化/花絮中字].Project.A.II.1987.GBR.BluRay.1080p.AVC.DTS-HD.MA.5.1-TAG 45.19GB 蓝光 2024-5-14 0307 蓝光 2024-5-14 23:37
[恐怖] 见鬼2 [港版原盘 DIY 国粤配简繁中字/国粤双语].The.Eye.2.2004.HKG.BluRay.1080p.AVC.TrueHD.5.1-TAG 22.36GB 蓝光 2024-5-14 0293 蓝光 2024-5-14 23:28
[恐怖] 养鬼 [美版2K修复原盘DIY简繁中字/国粤双语/菜单汉化/花絮中字].Ghost.Nursing.1982.USA.BluRay.1080p.AVC.DTS-HD.MA.2.0-TAG 29.93GB 蓝光 2024-5-14 2255 vitionenter 2024-5-31 15:56
[喜剧] 着牛仔裤的钟馗 [英版2K修复原盘DIY国粤配简繁中字/粤语DIY国语/菜单汉化/花絮中字].The.Blue.Jean.Monster.1991.GBR.BluRay.1080p.AVC.LPCM.2.0-TAG 34.28GB 蓝光 2024-5-14 2246 八步 2024-5-18 11:42
[动作] 冒险王 [英版2K修复原盘DIY国粤配简繁中字/粤语DIY国语/菜单汉化].Dr.Wai.in.the.Scripture.With.No.Words.1996.GBR.BluRay.1080p.AVC.LPCM.2.0-TAG 46.23GB 蓝光 2024-5-14 1329 speed5155 2024-6-15 14:15
[剧情] 蛊/五行鬼尸(台) [英版88 Films原盘 DIY国配+国配简繁字幕].Bewitched.1981.GBR.BluRay.1080p.AVC.LPCM.2.0-TAG 21.70GB 蓝光 2024-5-14 1324 Eric2006 2024-5-16 00:21
[喜剧] 惊天12小时 [英版原盘DIY国粤配简繁中字/粤语DIY国语].Hard.Boiled.II.1991.GBR.BluRay.1080p.AVC.DTS-HD.MA.2.0-TAG 30.85GB 蓝光 2024-5-14 1325 Eric2006 2024-5-16 00:20
[剧情] 霸王别姬 [日版4K修复原盘DIY简繁中字/国语DIY国粤法日语/导评/菜单汉化/花絮中字].Farewell.My.Concubine.1993.JPN.BluRay.1080p.AVC.DTS-HD.MA.5.1-TAG 46.54GB 蓝光 2024-5-14 7488 mayupei 2024-5-25 15:59
[犯罪] 霍莉的二次曝光 [美版原盘DIY中英简体/英语].The.Double.Exposure.of.Holly.1976.USA.BluRay.1080p.AVC.DTS-HD.MA.2.0-TAG 22.64GB 蓝光 2024-5-14 2272 james8039 2024-5-16 19:19
[剧情] 人肉叉烧包2之天诛地灭 [美版2K修复原盘DIY国粤配简繁中字/国粤语DIY国粤语/菜单汉化/花絮中字].The.Untold.Story.II.1998.USA.BluRay.1080p.AVC.DTS-HD.MA.2.0-TAG 28.44GB 蓝光 2024-5-14 2416 hczf 2024-6-2 10:02
[剧情] 零课女警和红手铐 [德版原盘DIY简繁中字/德日双语].Zeroka.no.onna.Akai.wappa.1974.GER.BluRay.1080p.AVC.DD.2.0-TAG 23.09GB 蓝光 2024-5-14 1381 Eric2006 2024-5-16 00:14
[剧情] 非官方行动/救参的士(港)/赎命救援(台) [港版原盘 DIY官译简繁粤字幕].Ransomed.2023.1080p.HK.Blu-ray.AVC.TrueHD.5.1-TAG 36.91GB 蓝光 2024-5-14 1300 Eric2006 2024-5-16 00:14
[喜剧] 千王之王2000 [港版原盘国粤双语+简繁中字].The.Tricky.Master.1999.BluRay.1080p.AVC.TrueHD5.1-TAG 22.35GB 蓝光 2024-5-14 0338 蓝光 2024-5-14 20:26
[剧情] 神秘巨星/秘密巨星/隐藏的大明星(台)/打死不离歌星梦(港) [港版原盘DIY 次世代国语音轨 国配简/繁 黑边简/繁 特效四字幕].Secret.Superstar.2017.HK.Blu-ray.1080p.AVC.TrueHD.5.1-TAG 46.84GB 蓝光 2024-5-14 0322 蓝光 2024-5-14 20:20
[剧情] 误杀瞒天记 [DIY简繁/简繁英双语字幕].Drishyam.2015.Blu-ray.1080p.AVC.TrueHD.5.1-TAG 43.69GB 蓝光 2024-5-14 0338 蓝光 2024-5-14 19:56
[喜剧] 奇美拉/盗墓奇美拉(台) [DIY简繁字幕].La.Chimera.2023.1080p.Blu-ray.AVC.DTS-HD.MA.5.1-TAG 22.85GB 蓝光 2024-5-14 1275 Eric2006 2024-5-16 00:12
[喜剧] 调音师/The Blind Melody/盲调/看不见的旋律/调琴师 [DIY国配特效字幕+R3简繁特效字幕+简体特效字幕+公映国语配音].Andhadhun.2018.1080p.Blu-ray.AVC.DTS-HD.MA.5.1-TAG 41.18GB 蓝光 2024-5-14 1274 Eric2006 2024-5-16 00:10
[动作] 007之黑日危机/黑日危机/新铁金刚之黑日危机/纵横天下 [DIY国配+简繁英双语字幕].The.World.Is.Not.Enough.1999.Blu-ray.1080p.AVC.DTS-HD.MA.5.1-TAG 45.29GB 蓝光 2024-5-14 0470 蓝光 2024-5-14 10:43
[剧情] 奇迹/奇迹:广州教父/替身的传说 [英2in1版原盘粤语][DIY国语5.1+简繁中字].Miracles.1989.2in1.1080p.GBR.Blu-ray.AVC.DTS-HD-TAG 44.45GB 蓝光 2024-5-14 1327 Eric2006 2024-5-16 00:09
[喜剧] 绿芥刑警/极速追杀令/青芥刑警/Wasabi [德版原盘DIY/国语 简繁字幕].Wasabi.2001.V2.1080p.GER.BluRay.AVC.DTS-HD.MA.5.1-TAG 22.79GB 蓝光 2024-5-14 1271 Eric2006 2024-5-16 00:07
[恐怖] 邪 [英版原盘 国粤双语双字幕 花絮中英双语字幕].Hex.1980.GBR.Bluray.1080p.AVC.LPCM.2.0-TAG 20.00GB 蓝光 2024-5-14 1334 Eric2006 2024-5-16 00:06
[科幻] 饥饿站台/饥饿斗室(港)/绝命大平台(台) [DIY简繁字幕].The.Platform.2019.Blu-ray.1080p.AVC.DTS-HD.MA.5.1-TAG 23.90GB 蓝光 2024-5-14 2244 smld8017 2024-5-16 00:41
[喜剧] 调音师/调琴师/看不见的旋律/盲调 [DIY简繁中字].Andhadhun.2018.1080p.Blu-ray.AVC.DTS-HD.MA.5.1-TAG 41.06GB 蓝光 2024-5-14 0217 蓝光 2024-5-14 09:56
[悬疑] 卢浮魅影.罗浮宫传奇.浮宫魅影 [原盘原生国语中字].Belphégor-Le.fantôme.du.Louvre.2001.BLU-RAY.1080P.AVC.DTS.HD-MA5.1-TAG 22.79GB 蓝光 2024-5-14 3247 kkdxxl 2024-5-21 14:46
[动作] 尖峰时刻3 [DIY国配 R3繁简中字 菜单修改].Rush.Hour.3.2007.1080p.BluRay.AVC.DTS-HD.MA.7.1-TAG 26.47GB 蓝光 2024-5-14 1285 2962 2024-7-1 08:16
[动作] 尖峰时刻2 [DIY上译国配 原生繁中 繁简英语 菜单修改].Rush.Hour.2.2001.1080p.BluRay.AVC.DTS-HD.MA.5.1-TAG 26.34GB 蓝光 2024-5-14 1244 Eric2006 2024-5-15 23:57
[动作] 尖峰时刻 [DIY国语/简繁中字/导评中字].Rush.Hour.1998.1080p.Bluray.VC-1.DTS-HDMA.7.1-TAG 33.29GB 蓝光 2024-5-14 2309 yjg2358 2024-6-22 07:49
[喜剧] 一个好人/义胆厨星 [DIY国粤英三语 简繁中字].Mr.Nice.Guy.2in1.1997.1080p.USA.Blu-ray.AVC.DTS-HD.MA.5.1-TAG 46.09GB 蓝光 2024-5-14 2324 Eric2006 2024-5-15 23:55
[剧情] 一个叫欧维的男人决定去死 [原盘DIY简体特效中英特效字幕].A.Man.Called.Ove.2015.USA.1080p.Blu-ray.AVC.DTS-HD.MA.5.1-TAG 40.50GB 蓝光 2024-5-13 2247 Eric2006 2024-5-15 23:54
[喜剧] 你丫闭嘴!/请你闭嘴/闭嘴 [DIY央视国语/六区国语/东北话/四川话/鞍山话+简繁字幕 ISO].Tais-Toi!.2003.Blu-Ray.1080p.VC-1.DTS-HD.HR.5.1-TAG 20.14GB 蓝光 2024-5-13 1293 Eric2006 2024-5-15 23:53
[剧情] 本能/第六感追缉令(台)/氷の微笑 [欧版原盘 新4K修复未分级版 DIY双国配+国配简繁+特效简繁+特效简繁英双语字幕].Basic.Instinct.1992.Unrated.DC.1080p.EUR.Blu-ray.AVC.DTS-HD.MA.5.1-TAG 37.72GB 蓝光 2024-5-13 1418 Eric2006 2024-5-15 23:48
[剧情] 精英部队/精锐暴队(港)/精锐部队/菁英部队 [DIY简繁字幕].Elite.Squad.2007.1080p.Blu-ray.AVC.DTS-HD.MA.5.1-TAG 38.84GB 蓝光 2024-5-13 0307 蓝光 2024-5-13 17:48
[剧情] 小黄狗的窝/蒙古的小黄狗/The Cave of the Yellow Dog [美版原盘 DIY中字].The.Cave.of.the.Yellow.Dog.AKA.Die.Höhle.des.gelben.Hundes.2005.1080p.USA.Blu-ray.AVC.DTS-HD.MA.5.1-TAG 19.42GB 蓝光 2024-5-13 1204 Eric2006 2024-5-15 23:46
[动作] 精英部队2:大敌当前/精英部队2/精锐部队2/菁英部队2 [DIY简繁字幕].Elite.Squad.2.2010.Blu-ray.BRA.1080p.AVC.DTS-HD.MA.5.1-TAG 30.90GB 蓝光 2024-5-13 1258 Eric2006 2024-5-15 23:45
[剧情] 有你我不怕/小孩不怕/我不害怕/我不怕/有你,我不怕/被绑架的小孩 [DIY 简繁字幕].Io.Non.Ho.Paura.2003.1080p.Blu-ray.AVC.DTS-HD.MA.5.1-TAG 45.69GB 蓝光 2024-5-13 1213 Eric2006 2024-5-15 23:44
[惊悚] 目露凶光 [港版原盘 国粤双语 简繁英字幕].Victim.1999.HKG.Blu-ray.1080P.AVC.TrueHD.5.1-TAG 21.79GB 蓝光 2024-5-13 1251 Eric2006 2024-5-15 23:43
[科幻] 世界末日/绝世天劫(港)/世界末日(台) [欧版原盘 DIY简繁/双语字幕 国配音轨].Armageddon.1998.1080p.EUR.Blu-ray.AVC.DTS-HD.MA.5.1-TAG 43.57GB 蓝光 2024-5-13 1353 Eric2006 2024-5-15 23:42
[剧情] 世界末日/世界末日的时刻 [DIY台粤配 简繁/双语字幕].Armageddon.Time.2022 Blu-ray 1080p AVC DTS-HD MA 5.1-TAG 39.06GB 蓝光 2024-5-13 1282 Eric2006 2024-5-15 23:41
[动作] 皇家战士 [英版2K修复原盘DIY国粤配简繁中字/原生粤语DIY国粤语5.1].Royal.Warriors.1986.GBR.BluRay.1080p.AVC.LPCM.1.0-TAG 42.85GB 蓝光 2024-5-13 0332 蓝光 2024-5-13 09:33
[喜剧] 黑侠 [香港版+国际版 英版2K修复原盘DIY国粤配简繁中字/粤语DIY国语/菜单汉化].Black.Mask.1996.GBR.Disc1.BluRay.1080p.AVC.DTS-HD.MA.5.1-TAG 45.91GB 蓝光 2024-5-12 1359 Eric2006 2024-5-15 23:40
[喜剧] 虎口脱险/横冲直撞出重围(港)/大進擊(台) [4K精修50周年纪念版原盘/DIY次世代双国配/简繁字幕].La.grande.vadrouille.1966.50th.Anniversary.Blu-ray.1080p.AVC.DTS-HD.MA-TAG 41.27GB 蓝光 2024-5-12 1369 Eric2006 2024-5-15 23:37
[动作] 危情时速/不可阻挡/无可阻止/煞不住(台)/煞破天劫(港) [全码国语][DIY原盘 简繁/简繁英双语/纯特效字幕].Unstoppable.2010.BluRay.1080p.AVC.HDMA 5.1-TAG 40.34GB 蓝光 2024-5-12 2346 qwhw610 2024-5-12 23:19
[动画] 功夫熊猫2 [原盘 DIY 国语 粤语 台配 简繁特效中字].Kung.Fu.Panda.2.2011.Blu-ray.1080p.AVC.TrueHD.7.1-TAG 41.66GB 蓝光 2024-5-12 0334 蓝光 2024-5-12 19:55
[剧情] 海底喋血战/水下敌人 [日版高码原盘 DIY国语/简/繁中字].The.Enemy.Below.1957.1080p.JAP.Blu-ray.AVC.DTS-HD.MA.4.0-TAG 29.20GB 蓝光 2024-5-12 1296 Eric2006 2024-5-15 23:36
[剧情] 看不见的客人/佈局(台)/死无对证(港) [西版原盘DIY 次世代国语音轨 国配简/繁 画内简/繁 黑边简/繁/简西/繁西 特效八字幕].Contratiempo.2016.1080p.Blu-ray.AVC.TrueHD.5.1-TAG 40.37GB 蓝光 2024-5-12 1319 Eric2006 2024-5-15 23:35
[剧情] 晚娘 [中字].Jan.Dara.2001.Blu-ray.1080p.AVC.Dolby.TrueHD.Audio.5.1-TAG 21.88GB 蓝光 2024-5-12 3653 qunannan 2024-6-21 06:41
[科幻] 异次元骇客/13阶梯/The 13th Floor/十三层楼/十三度凶兆/十三度凶间/第十三层 [DIY国语+简繁+双语字幕].The.Thirteenth.Floor.1999.1080p.Blu-Ray.AVC.TrueHD.5.1-TAG 28.76GB 蓝光 2024-5-12 2321 Eric2006 2024-5-15 23:32
[剧情] 银行大劫案/伦敦金融街大劫案/爆窃英格兰央行/爆窃英行/玩命追缉:贝克街大劫案/银行劫案 [德版原盘 DIY国语+简繁+双语字幕].The.Bank.Job.2008.1080p.GER.Blu-ray.AVC.DTS-HD.MA.7.1-TAG 42.66GB 蓝光 2024-5-11 2394 zxun 2024-6-16 21:40
下一页 »

快速发帖

还可输入 80 个字符
您需要登录后才可以发帖 登录 | 立即加入

本版积分规则

Archiver| |网站地图

Copyright © 2024 Comsenz Inc. Powered by 蓝光电影网

本站内容由用户自主分享和转载自互联网,转载目的在于传递更多信息,并不代表本网赞同其观点和对其真实性负责。

如有侵权、违反国家法律政策行为,请联系我们,我们会第一时间及时清除和处理!

举报反馈邮箱:4k1080.com@gmail.com

返回顶部 返回版块